Time;durP1;ratioP1;P1;durP2;ratioP2;P2;SDS_P1;SDS_P2;PMS_P1;PMS_P2;Temp;Humidity;BMP_temperature;BMP_pressure;BME280_temperature;BME280_humidity;BME280_pressure;Samples;Min_cycle;Max_cycle;Signal;HPM_P1;HPM_P2
2022/09/18 00:01:54;;;;;;;8.85;1.33;;;10.50;99.90;;;;;;5070568;28;20603;-49
2022/09/18 00:04:20;;;;;;;13.63;1.90;;;10.50;99.90;;;;;;5071091;28;20408;-45
2022/09/18 00:06:47;;;;;;;10.85;1.73;;;10.50;99.90;;;;;;5071497;28;20559;-46
2022/09/18 00:09:14;;;;;;;10.15;2.03;;;10.50;99.90;;;;;;5049869;28;20385;-47
2022/09/18 00:11:43;;;;;;;12.68;2.05;;;10.40;99.90;;;;;;5071627;28;20491;-49
2022/09/18 00:14:11;;;;;;;12.93;2.28;;;10.40;99.90;;;;;;5067684;28;20090;-49
2022/09/18 00:16:38;;;;;;;10.73;1.85;;;10.40;99.90;;;;;;5072888;28;20127;-51
2022/09/18 00:19:05;;;;;;;11.73;1.65;;;10.40;99.90;;;;;;5060136;28;20117;-48
2022/09/18 00:21:34;;;;;;;9.50;1.42;;;10.40;99.90;;;;;;5070306;28;20105;-48
2022/09/18 00:24:01;;;;;;;9.52;1.70;;;10.40;99.90;;;;;;5065567;28;20048;-48
2022/09/18 00:26:28;;;;;;;10.63;1.45;;;10.30;99.90;;;;;;5070495;28;20585;-47
2022/09/18 00:28:57;;;;;;;11.70;2.15;;;10.30;99.90;;;;;;5071018;28;20147;-51
2022/09/18 00:31:25;;;;;;;13.18;2.00;;;10.30;99.90;;;;;;5061048;28;20082;-45
2022/09/18 00:33:52;;;;;;;12.73;2.00;;;10.30;99.90;;;;;;5072088;28;20052;-43
2022/09/18 00:36:19;;;;;;;16.02;1.77;;;10.20;99.90;;;;;;5071248;28;20052;-49
2022/09/18 00:38:46;;;;;;;17.88;2.35;;;10.30;99.90;;;;;;5063061;28;20071;-48
2022/09/18 00:41:14;;;;;;;15.05;2.22;;;10.30;99.90;;;;;;5064461;28;20476;-49
2022/09/18 00:43:40;;;;;;;12.65;2.13;;;10.30;99.90;;;;;;5070642;28;20091;-43
2022/09/18 00:46:09;;;;;;;9.80;1.52;;;10.20;99.90;;;;;;5064565;28;20092;-48
2022/09/18 00:48:40;;;;;;;10.27;2.08;;;10.30;99.90;;;;;;5071516;28;20072;-47
2022/09/18 00:51:07;;;;;;;13.35;1.98;;;10.30;99.90;;;;;;5071125;28;20048;-49
2022/09/18 00:53:34;;;;;;;6.57;1.30;;;10.20;99.90;;;;;;5068575;28;20091;-52
2022/09/18 00:56:01;;;;;;;10.05;1.80;;;10.20;99.90;;;;;;5070764;28;20075;-48
2022/09/18 00:58:27;;;;;;;13.13;1.73;;;10.30;99.90;;;;;;5032957;28;20546;-47
2022/09/18 01:00:55;;;;;;;15.65;2.08;;;10.30;99.90;;;;;;5050647;28;20441;-49
2022/09/18 01:03:23;;;;;;;11.68;1.45;;;10.20;99.90;;;;;;5042104;28;20052;-53
2022/09/18 01:05:59;;;;;;;9.07;1.77;;;10.30;99.90;;;;;;5042011;28;20136;-49
2022/09/18 01:08:35;;;;;;;15.77;2.22;;;10.30;99.90;;;;;;5033700;28;20080;-48
2022/09/18 01:11:11;;;;;;;10.93;1.83;;;10.30;99.90;;;;;;5051555;28;20152;-49
2022/09/18 01:13:42;;;;;;;10.15;1.95;;;10.40;99.90;;;;;;5036671;28;20135;-51
2022/09/18 01:16:10;;;;;;;13.70;2.53;;;10.30;99.90;;;;;;5030618;28;20480;-49
2022/09/18 01:18:42;;;;;;;7.60;1.50;;;10.30;99.90;;;;;;5052019;28;20099;-49
2022/09/18 01:21:12;;;;;;;13.55;2.72;;;10.30;99.90;;;;;;5052009;28;20057;-51
2022/09/18 01:24:18;;;;;;;11.60;1.95;;;10.40;99.90;;;;;;5050686;28;20440;-49
2022/09/18 01:26:54;;;;;;;9.90;1.33;;;10.40;99.90;;;;;;5052054;28;20064;-49
2022/09/18 01:29:31;;;;;;;8.93;1.75;;;10.40;99.90;;;;;;5050752;28;20056;-51
2022/09/18 01:32:00;;;;;;;11.32;1.40;;;10.40;99.90;;;;;;5036702;28;20049;-52
2022/09/18 01:34:31;;;;;;;11.23;1.40;;;10.40;99.90;;;;;;5055330;28;20128;-49
2022/09/18 01:37:00;;;;;;;16.73;2.03;;;10.40;99.90;;;;;;5055437;28;20077;-52
2022/09/18 01:39:29;;;;;;;9.23;1.40;;;10.40;99.90;;;;;;5053528;28;20171;-42
2022/09/18 01:41:55;;;;;;;8.10;1.52;;;10.50;99.90;;;;;;5052378;28;20045;-50
2022/09/18 01:44:23;;;;;;;12.20;1.63;;;10.40;99.90;;;;;;5054434;28;20041;-49
2022/09/18 01:46:51;;;;;;;7.00;1.50;;;10.50;99.90;;;;;;5054698;28;20077;-49
2022/09/18 01:49:19;;;;;;;11.73;1.77;;;10.60;99.90;;;;;;5056308;28;20080;-53
2022/09/18 01:51:47;;;;;;;9.73;1.85;;;10.50;99.90;;;;;;5054483;28;20053;-52
2022/09/18 01:54:15;;;;;;;10.38;1.40;;;10.60;99.90;;;;;;5061979;28;20055;-50
2022/09/18 01:56:43;;;;;;;6.97;1.58;;;10.60;99.90;;;;;;5052992;28;20052;-52
2022/09/18 01:59:12;;;;;;;11.43;1.67;;;10.60;99.90;;;;;;5053031;28;20051;-53
2022/09/18 02:01:38;;;;;;;9.02;1.30;;;10.60;99.90;;;;;;5028948;28;20142;-50
2022/09/18 02:04:08;;;;;;;13.63;1.90;;;10.60;99.90;;;;;;5054801;28;20115;-51
2022/09/18 02:06:38;;;;;;;10.80;1.60;;;10.60;99.90;;;;;;5051858;28;20440;-51
2022/09/18 02:09:04;;;;;;;10.57;1.25;;;10.60;99.90;;;;;;5053246;28;20080;-51
2022/09/18 02:11:31;;;;;;;6.90;1.38;;;10.60;99.90;;;;;;5054657;28;20136;-49
2022/09/18 02:14:00;;;;;;;8.23;1.60;;;10.60;99.90;;;;;;5053187;28;20119;-49
2022/09/18 02:16:30;;;;;;;16.35;2.00;;;10.70;99.90;;;;;;5035943;28;20045;-48
2022/09/18 02:18:57;;;;;;;11.02;1.45;;;10.70;99.90;;;;;;5054823;28;20067;-52
2022/09/18 02:21:27;;;;;;;6.82;1.25;;;10.70;99.90;;;;;;5036210;28;20128;-48
2022/09/18 02:23:54;;;;;;;10.85;1.55;;;10.70;99.90;;;;;;5054397;28;20083;-49
2022/09/18 02:26:21;;;;;;;8.15;1.55;;;10.70;99.90;;;;;;5053578;28;20493;-48
2022/09/18 02:28:48;;;;;;;12.88;1.63;;;10.70;99.90;;;;;;5053311;28;20136;-49
2022/09/18 02:31:15;;;;;;;12.25;2.35;;;10.70;99.90;;;;;;5054741;28;20044;-50
2022/09/18 02:33:42;;;;;;;13.02;1.52;;;10.70;99.90;;;;;;5052706;28;20045;-47
2022/09/18 02:36:18;;;;;;;13.65;1.70;;;10.80;99.90;;;;;;5054247;28;20473;-52
2022/09/18 02:38:49;;;;;;;10.80;1.85;;;10.80;99.90;;;;;;5053046;28;20143;-48
2022/09/18 02:41:17;;;;;;;11.40;2.95;;;10.80;99.90;;;;;;5035699;28;20080;-50
2022/09/18 02:43:48;;;;;;;10.38;1.42;;;10.80;99.90;;;;;;5049071;28;20053;-42
2022/09/18 02:46:18;;;;;;;16.10;1.80;;;10.80;99.90;;;;;;5054658;28;20492;-49
2022/09/18 02:48:47;;;;;;;13.30;1.60;;;10.90;99.90;;;;;;5035413;28;20140;-51
2022/09/18 02:51:18;;;;;;;10.93;1.73;;;10.90;99.90;;;;;;5044642;28;20044;-51
2022/09/18 02:53:49;;;;;;;18.67;1.85;;;10.90;99.90;;;;;;5053493;28;20048;-47
2022/09/18 02:56:21;;;;;;;13.48;1.50;;;11.00;99.90;;;;;;5049130;28;20053;-50
2022/09/18 02:58:50;;;;;;;9.45;1.63;;;11.00;99.90;;;;;;5054182;28;20128;-52
2022/09/18 03:01:17;;;;;;;13.23;1.70;;;11.00;99.90;;;;;;5035673;28;20507;-51
2022/09/18 03:03:43;;;;;;;9.85;1.27;;;11.00;99.90;;;;;;5035544;28;20057;-52
2022/09/18 03:06:10;;;;;;;13.57;2.08;;;11.00;99.90;;;;;;5036164;28;20088;-47
2022/09/18 03:08:37;;;;;;;10.07;1.50;;;11.00;99.90;;;;;;5055062;28;20049;-52
2022/09/18 03:11:05;;;;;;;10.15;1.60;;;11.10;99.90;;;;;;5058042;28;20084;-48
2022/09/18 03:13:32;;;;;;;12.82;1.73;;;11.00;99.90;;;;;;5053957;28;20049;-51
2022/09/18 03:15:59;;;;;;;9.90;1.35;;;11.10;99.90;;;;;;5052029;28;20045;-51
2022/09/18 03:18:26;;;;;;;11.32;1.50;;;11.10;99.90;;;;;;5036163;28;20056;-51
2022/09/18 03:20:52;;;;;;;16.08;1.83;;;11.10;99.90;;;;;;5051495;28;20139;-42
2022/09/18 03:23:19;;;;;;;14.38;1.50;;;11.10;99.90;;;;;;5035777;28;20136;-49
2022/09/18 03:25:48;;;;;;;8.02;1.55;;;11.10;99.90;;;;;;5037196;28;20104;-43
2022/09/18 03:28:17;;;;;;;7.82;1.10;;;11.10;99.90;;;;;;5034686;28;20057;-52
2022/09/18 03:30:44;;;;;;;12.25;1.60;;;11.10;99.90;;;;;;5041206;28;20549;-42
2022/09/18 03:33:10;;;;;;;12.93;1.60;;;11.20;99.90;;;;;;5018781;28;20489;-47
2022/09/18 03:35:37;;;;;;;7.32;1.40;;;11.20;99.90;;;;;;5052727;28;20564;-51
2022/09/18 03:38:04;;;;;;;12.80;1.63;;;11.20;99.90;;;;;;5034998;28;20084;-51
2022/09/18 03:40:31;;;;;;;13.95;1.60;;;11.10;99.90;;;;;;5035788;28;20080;-52
2022/09/18 03:42:57;;;;;;;13.48;1.50;;;11.20;99.90;;;;;;5059009;28;20077;-54
2022/09/18 03:45:26;;;;;;;14.20;1.58;;;11.20;99.90;;;;;;5052559;28;20455;-53
2022/09/18 03:47:52;;;;;;;13.55;1.55;;;11.20;99.90;;;;;;5051425;28;20043;-52
2022/09/18 03:50:19;;;;;;;10.73;1.30;;;11.10;99.90;;;;;;5042558;28;20136;-51
2022/09/18 03:52:47;;;;;;;12.65;2.00;;;11.20;99.90;;;;;;5036043;28;20566;-50
2022/09/18 03:55:13;;;;;;;7.03;1.33;;;11.20;99.90;;;;;;5052163;28;20527;-49
2022/09/18 03:57:40;;;;;;;10.80;1.40;;;11.20;99.90;;;;;;5050056;28;20084;-49
2022/09/18 04:00:08;;;;;;;12.23;1.40;;;11.10;99.90;;;;;;5053281;28;20080;-48
2022/09/18 04:02:36;;;;;;;8.88;1.13;;;11.10;99.90;;;;;;5048948;28;20052;-45
2022/09/18 04:05:03;;;;;;;8.07;1.17;;;11.00;99.90;;;;;;5054849;28;20528;-49
2022/09/18 04:07:30;;;;;;;5.30;1.25;;;11.10;99.90;;;;;;5052503;28;20049;-52
2022/09/18 04:09:57;;;;;;;13.35;2.05;;;11.10;99.90;;;;;;5035590;28;20084;-44
2022/09/18 04:12:24;;;;;;;11.27;1.20;;;11.10;99.90;;;;;;5044574;28;20088;-51
2022/09/18 04:14:51;;;;;;;9.57;1.17;;;11.00;99.90;;;;;;5033832;28;20077;-49
2022/09/18 04:17:17;;;;;;;6.47;1.27;;;11.00;99.90;;;;;;5050815;28;20120;-49
2022/09/18 04:19:46;;;;;;;9.13;1.52;;;11.00;99.90;;;;;;5058441;28;20098;-51
2022/09/18 04:22:12;;;;;;;10.93;1.83;;;11.00;99.90;;;;;;5036221;28;20080;-53
2022/09/18 04:24:39;;;;;;;10.95;2.55;;;11.00;99.90;;;;;;5058741;28;20454;-50
2022/09/18 04:27:06;;;;;;;10.40;1.52;;;11.00;99.90;;;;;;5045505;28;20048;-48
2022/09/18 04:29:33;;;;;;;7.82;1.50;;;11.00;99.90;;;;;;5053299;28;20088;-52
2022/09/18 04:32:00;;;;;;;11.25;1.80;;;11.00;99.90;;;;;;5051788;28;20080;-47
2022/09/18 04:34:26;;;;;;;10.77;1.27;;;11.00;99.90;;;;;;5039075;28;20131;-51
2022/09/18 04:36:54;;;;;;;8.65;1.50;;;11.00;99.90;;;;;;5060827;28;20127;-52
2022/09/18 04:39:21;;;;;;;11.57;1.67;;;11.00;99.90;;;;;;5034878;28;20045;-49
2022/09/18 04:41:51;;;;;;;15.02;1.40;;;11.00;99.90;;;;;;5051263;28;20072;-52
2022/09/18 04:44:17;;;;;;;10.18;1.40;;;11.00;99.90;;;;;;5044841;28;20089;-50
2022/09/18 04:46:44;;;;;;;11.80;1.60;;;11.00;99.90;;;;;;5051112;28;20086;-48
2022/09/18 04:49:11;;;;;;;11.02;1.58;;;11.00;99.90;;;;;;5036922;28;20063;-50
2022/09/18 04:51:38;;;;;;;10.38;1.20;;;11.00;99.90;;;;;;5051806;28;20079;-50
2022/09/18 04:54:06;;;;;;;5.95;1.15;;;11.10;99.90;;;;;;5052420;28;20077;-41
2022/09/18 04:56:33;;;;;;;12.25;1.33;;;11.10;99.90;;;;;;5050574;28;20060;-44
2022/09/18 04:58:59;;;;;;;10.98;1.20;;;11.10;99.90;;;;;;5067466;28;20052;-48
2022/09/18 05:01:26;;;;;;;6.78;1.55;;;11.10;99.90;;;;;;5058234;28;20124;-47
2022/09/18 05:03:53;;;;;;;12.05;1.20;;;11.10;99.90;;;;;;5044770;28;20053;-49
2022/09/18 05:06:20;;;;;;;9.85;1.15;;;11.10;99.90;;;;;;5055281;28;20041;-49
2022/09/18 05:08:47;;;;;;;11.52;1.50;;;11.10;99.90;;;;;;5050190;28;20408;-53
2022/09/18 05:11:15;;;;;;;8.10;1.23;;;11.10;99.90;;;;;;5051272;28;20073;-50
2022/09/18 05:13:42;;;;;;;11.02;1.50;;;11.10;99.90;;;;;;5044517;28;20110;-49
2022/09/18 05:16:09;;;;;;;7.85;1.10;;;11.20;99.90;;;;;;5049476;28;20051;-48
2022/09/18 05:18:35;;;;;;;10.75;1.30;;;11.10;99.90;;;;;;5070650;28;20140;-49
2022/09/18 05:21:02;;;;;;;9.65;1.17;;;11.10;99.90;;;;;;5065094;28;20087;-48
2022/09/18 05:23:29;;;;;;;6.40;1.30;;;11.10;99.90;;;;;;5065485;28;20497;-49
2022/09/18 05:25:56;;;;;;;13.32;1.52;;;11.10;99.90;;;;;;5054549;28;20045;-45
2022/09/18 05:28:24;;;;;;;10.20;1.27;;;11.10;99.90;;;;;;5063488;28;20076;-46
2022/09/18 05:30:51;;;;;;;9.05;1.10;;;11.20;99.90;;;;;;5058774;28;20079;-58
2022/09/18 05:33:18;;;;;;;5.82;0.95;;;11.20;99.90;;;;;;5048630;28;20101;-50
2022/09/18 05:35:44;;;;;;;7.82;1.20;;;11.20;99.90;;;;;;5062823;28;20130;-55
2022/09/18 05:38:11;;;;;;;9.00;1.10;;;11.20;99.90;;;;;;5048277;28;20076;-56
2022/09/18 05:40:38;;;;;;;11.48;1.05;;;11.20;99.90;;;;;;5060370;28;20053;-56
2022/09/18 05:43:06;;;;;;;9.02;1.15;;;11.20;99.90;;;;;;5033111;28;20057;-57
2022/09/18 05:45:34;;;;;;;9.15;1.20;;;11.20;99.90;;;;;;5051778;28;20377;-57
2022/09/18 05:48:01;;;;;;;4.68;0.98;;;11.20;99.90;;;;;;5053732;28;20097;-56
2022/09/18 05:50:29;;;;;;;6.90;1.00;;;11.10;99.90;;;;;;5066451;28;20072;-56
2022/09/18 05:53:00;;;;;;;9.65;1.52;;;11.10;99.90;;;;;;5065785;28;20053;-55
2022/09/18 05:55:28;;;;;;;7.32;1.52;;;11.10;99.90;;;;;;5046356;28;20492;-53
2022/09/18 05:57:55;;;;;;;6.03;1.25;;;11.20;99.90;;;;;;5053994;28;20056;-53
2022/09/18 06:00:22;;;;;;;5.25;0.80;;;11.20;99.90;;;;;;5061209;28;20052;-52
2022/09/18 06:02:56;;;;;;;6.20;0.85;;;11.20;99.90;;;;;;5037575;28;20107;-55
2022/09/18 06:05:23;;;;;;;9.10;1.55;;;11.20;99.90;;;;;;5042949;28;20120;-55
2022/09/18 06:07:50;;;;;;;7.00;1.13;;;11.20;99.90;;;;;;5063684;28;20048;-56
2022/09/18 06:10:17;;;;;;;10.38;1.13;;;11.20;99.90;;;;;;5066112;28;20115;-54
2022/09/18 06:12:44;;;;;;;5.38;1.10;;;11.20;99.90;;;;;;5052389;28;20110;-54
2022/09/18 06:15:11;;;;;;;8.10;1.13;;;11.20;99.90;;;;;;5040849;28;20080;-53
2022/09/18 06:17:38;;;;;;;7.50;0.98;;;11.30;99.90;;;;;;5066304;28;20060;-57
2022/09/18 06:20:07;;;;;;;5.72;1.00;;;11.30;99.90;;;;;;5061768;28;20080;-57
2022/09/18 06:22:34;;;;;;;7.32;1.13;;;11.30;99.90;;;;;;5060513;28;20041;-56
2022/09/18 06:25:01;;;;;;;7.10;1.20;;;11.30;99.90;;;;;;5059923;28;20080;-56
2022/09/18 06:27:27;;;;;;;8.88;1.00;;;11.30;99.90;;;;;;5055745;28;20072;-57
2022/09/18 06:29:54;;;;;;;5.60;0.90;;;11.30;99.90;;;;;;5056370;28;20053;-57
2022/09/18 06:32:21;;;;;;;11.65;1.30;;;11.30;99.90;;;;;;5043475;28;20048;-48
2022/09/18 06:34:48;;;;;;;3.75;0.90;;;11.30;99.90;;;;;;5053465;28;20562;-56
2022/09/18 06:37:16;;;;;;;5.40;1.10;;;11.30;99.90;;;;;;5070615;28;20504;-56
2022/09/18 06:39:43;;;;;;;7.13;0.85;;;11.40;99.90;;;;;;5052534;28;21743;-57
2022/09/18 06:42:10;;;;;;;4.90;1.00;;;11.30;99.90;;;;;;5058218;28;20129;-57
2022/09/18 06:44:37;;;;;;;6.32;1.15;;;11.30;99.90;;;;;;5060134;28;20085;-51
2022/09/18 06:47:04;;;;;;;9.98;1.38;;;11.40;99.90;;;;;;5042032;28;20106;-54
2022/09/18 06:49:30;;;;;;;7.20;0.95;;;11.30;99.90;;;;;;5046120;28;20091;-50
2022/09/18 06:51:57;;;;;;;6.60;1.00;;;11.30;99.90;;;;;;5063530;28;20451;-53
2022/09/18 06:54:26;;;;;;;8.55;1.23;;;11.40;99.90;;;;;;5045320;28;20055;-52
2022/09/18 06:56:52;;;;;;;8.23;1.40;;;11.40;99.90;;;;;;5049036;28;20055;-53
2022/09/18 06:59:21;;;;;;;7.70;1.20;;;11.40;99.90;;;;;;5061048;28;20110;-50
2022/09/18 07:01:48;;;;;;;6.70;1.70;;;11.40;99.90;;;;;;5071558;28;20072;-51
2022/09/18 07:04:14;;;;;;;6.80;1.20;;;11.40;99.90;;;;;;5065476;28;20053;-52
2022/09/18 07:06:43;;;;;;;7.38;1.50;;;11.40;99.90;;;;;;5058196;28;20140;-48
2022/09/18 07:09:10;;;;;;;9.40;1.10;;;11.40;99.90;;;;;;5077452;28;20084;-53
2022/09/18 07:11:39;;;;;;;12.68;1.55;;;11.50;99.90;;;;;;5055510;28;20076;-56
2022/09/18 07:14:06;;;;;;;8.27;2.03;;;11.40;99.90;;;;;;5063309;28;20214;-56
2022/09/18 07:16:33;;;;;;;6.18;0.93;;;11.40;99.90;;;;;;5064255;28;20055;-56
2022/09/18 07:19:00;;;;;;;8.07;1.20;;;11.50;99.90;;;;;;5058930;28;20132;-56
2022/09/18 07:21:27;;;;;;;4.85;1.20;;;11.50;99.90;;;;;;5074229;28;20139;-56
2022/09/18 07:23:54;;;;;;;7.22;1.75;;;11.50;99.90;;;;;;5055958;28;20565;-47
2022/09/18 07:26:20;;;;;;;5.97;1.10;;;11.50;99.90;;;;;;5070028;28;20084;-53
2022/09/18 07:28:50;;;;;;;7.38;1.38;;;11.50;99.90;;;;;;5072317;28;20127;-53
2022/09/18 07:31:17;;;;;;;9.30;1.23;;;11.50;99.90;;;;;;5065631;28;20110;-52
2022/09/18 07:33:44;;;;;;;6.72;1.55;;;11.50;99.90;;;;;;5074347;28;20080;-51
2022/09/18 07:36:10;;;;;;;7.57;1.10;;;11.50;99.90;;;;;;5046829;28;20127;-52
2022/09/18 07:38:38;;;;;;;5.28;1.20;;;11.50;99.90;;;;;;5071894;28;20057;-48
2022/09/18 07:41:05;;;;;;;7.63;1.20;;;11.50;99.90;;;;;;5071022;28;20404;-53
2022/09/18 07:43:32;;;;;;;7.40;1.45;;;11.50;99.90;;;;;;5062778;28;20098;-51
2022/09/18 07:46:00;;;;;;;6.93;1.10;;;11.50;99.90;;;;;;5055082;28;20433;-52
2022/09/18 07:48:27;;;;;;;11.18;1.52;;;11.50;99.90;;;;;;5043527;28;20057;-52
2022/09/18 07:50:56;;;;;;;10.63;1.45;;;11.50;99.90;;;;;;5070268;28;20384;-55
2022/09/18 07:53:23;;;;;;;7.63;1.30;;;11.50;99.90;;;;;;5054158;28;20476;-54
2022/09/18 07:55:51;;;;;;;8.38;1.45;;;11.40;99.90;;;;;;5039567;28;20056;-56
2022/09/18 07:58:18;;;;;;;6.68;1.30;;;11.40;99.90;;;;;;5059828;28;20056;-53
2022/09/18 08:00:46;;;;;;;8.75;1.05;;;11.40;99.90;;;;;;5071220;28;20041;-54
2022/09/18 08:03:14;;;;;;;8.60;1.10;;;11.40;99.90;;;;;;5072641;28;20048;-54
2022/09/18 08:05:41;;;;;;;7.95;2.33;;;11.30;99.90;;;;;;5052260;28;20057;-51
2022/09/18 08:08:11;;;;;;;6.20;1.20;;;11.30;99.90;;;;;;5047013;28;20122;-52
2022/09/18 08:10:39;;;;;;;8.05;1.33;;;11.30;99.90;;;;;;5065945;28;20558;-48
2022/09/18 08:13:05;;;;;;;7.45;1.27;;;11.30;99.90;;;;;;5064831;28;20063;-53
2022/09/18 08:15:33;;;;;;;7.13;1.83;;;11.30;99.90;;;;;;5071825;28;20049;-52
2022/09/18 08:18:00;;;;;;;9.02;1.45;;;11.30;99.90;;;;;;5064234;28;20102;-45
2022/09/18 08:20:28;;;;;;;5.13;1.13;;;11.30;99.90;;;;;;5038499;28;20067;-51
2022/09/18 08:22:55;;;;;;;7.65;1.10;;;11.30;99.90;;;;;;5071513;28;20125;-53
2022/09/18 08:25:22;;;;;;;12.38;1.08;;;11.40;99.90;;;;;;5046384;28;20064;-53
2022/09/18 08:27:49;;;;;;;4.80;1.02;;;11.40;99.90;;;;;;5055240;28;20155;-57
2022/09/18 08:30:16;;;;;;;5.57;1.48;;;11.40;99.90;;;;;;5060173;28;20098;-46
2022/09/18 08:32:43;;;;;;;5.82;1.27;;;11.40;99.90;;;;;;5052853;28;20041;-57
2022/09/18 08:35:10;;;;;;;7.68;0.98;;;11.50;99.90;;;;;;5064127;28;20051;-56
2022/09/18 08:37:38;;;;;;;8.02;1.70;;;11.50;99.90;;;;;;5054251;28;20063;-56
2022/09/18 08:40:09;;;;;;;6.32;1.70;;;11.50;99.90;;;;;;5053580;28;20508;-55
2022/09/18 08:42:37;;;;;;;7.30;2.72;;;11.50;99.90;;;;;;5050649;28;20055;-54
2022/09/18 08:45:07;;;;;;;6.15;2.00;;;11.60;99.90;;;;;;5047904;28;20048;-54
2022/09/18 08:47:36;;;;;;;6.03;1.95;;;11.60;99.90;;;;;;5073121;28;20080;-53
2022/09/18 08:50:04;;;;;;;7.15;1.83;;;11.60;99.90;;;;;;5052824;28;20507;-57
2022/09/18 08:52:32;;;;;;;9.32;2.17;;;11.70;99.90;;;;;;5071452;28;20079;-54
2022/09/18 08:55:02;;;;;;;8.40;1.38;;;11.70;99.90;;;;;;5054623;28;20454;-57
2022/09/18 08:57:32;;;;;;;6.68;1.80;;;11.70;99.90;;;;;;5072153;28;20139;-57
2022/09/18 09:00:00;;;;;;;9.68;1.48;;;11.70;99.90;;;;;;5071264;28;20097;-57
2022/09/18 09:02:38;;;;;;;7.03;1.50;;;11.80;99.90;;;;;;5068003;28;20164;-55
2022/09/18 09:05:08;;;;;;;5.90;1.70;;;11.80;99.90;;;;;;5071938;28;20052;-56
2022/09/18 09:07:51;;;;;;;7.50;1.10;;;11.80;99.90;;;;;;5071749;28;20127;-55
2022/09/18 09:10:30;;;;;;;6.68;1.92;;;11.80;99.90;;;;;;5045483;28;20064;-57
2022/09/18 09:12:59;;;;;;;5.72;2.25;;;11.80;99.90;;;;;;5067426;28;20396;-56
2022/09/18 09:15:33;;;;;;;6.82;1.27;;;11.90;99.90;;;;;;5048971;28;20048;-50
2022/09/18 09:18:08;;;;;;;10.25;1.23;;;11.90;99.90;;;;;;5071220;28;20127;-48
2022/09/18 09:20:40;;;;;;;8.30;1.30;;;11.90;99.90;;;;;;5066406;28;20095;-54
2022/09/18 09:23:18;;;;;;;8.05;1.20;;;11.90;99.90;;;;;;5034829;28;20095;-52
2022/09/18 09:25:50;;;;;;;7.32;2.72;;;12.00;99.90;;;;;;5054885;28;20094;-53
2022/09/18 09:28:19;;;;;;;7.03;1.55;;;12.00;99.90;;;;;;5072489;28;20049;-50
2022/09/18 09:30:47;;;;;;;7.53;1.98;;;12.00;99.90;;;;;;5041586;28;20041;-53
2022/09/18 09:33:19;;;;;;;7.55;2.47;;;12.00;99.90;;;;;;5060264;28;20056;-49
2022/09/18 09:35:47;;;;;;;6.25;1.80;;;12.00;99.90;;;;;;5065516;28;20049;-51
2022/09/18 09:38:29;;;;;;;7.95;1.25;;;12.00;99.90;;;;;;5036143;28;20557;-52
2022/09/18 09:40:57;;;;;;;6.50;1.10;;;12.10;99.90;;;;;;5051497;28;20061;-52
2022/09/18 09:43:26;;;;;;;7.40;1.48;;;12.10;99.90;;;;;;5060405;28;20045;-46
2022/09/18 09:45:54;;;;;;;9.45;2.00;;;12.10;99.90;;;;;;5051733;28;20048;-49
2022/09/18 09:48:22;;;;;;;7.72;1.38;;;12.10;99.90;;;;;;5061735;28;20115;-43
2022/09/18 09:50:53;;;;;;;6.70;1.58;;;12.10;99.90;;;;;;5042838;28;20080;-45
2022/09/18 09:53:21;;;;;;;8.85;2.92;;;12.10;99.90;;;;;;5066027;28;20095;-51
2022/09/18 09:55:54;;;;;;;8.45;1.67;;;12.20;99.90;;;;;;5066392;28;20139;-50
2022/09/18 09:58:29;;;;;;;7.75;2.08;;;12.10;99.90;;;;;;5057966;28;20040;-51
2022/09/18 10:00:59;;;;;;;6.15;1.00;;;12.20;99.90;;;;;;5046983;28;20131;-49
2022/09/18 10:03:32;;;;;;;4.15;1.27;;;12.10;99.90;;;;;;5044573;28;20095;-50
2022/09/18 10:06:03;;;;;;;8.10;1.20;;;12.10;99.90;;;;;;5056787;28;20056;-56
2022/09/18 10:08:33;;;;;;;7.68;1.60;;;12.10;99.90;;;;;;5059811;28;20055;-57
2022/09/18 10:11:00;;;;;;;14.13;1.75;;;12.20;99.90;;;;;;5057198;28;20123;-54
2022/09/18 10:13:30;;;;;;;5.45;1.05;;;12.30;99.90;;;;;;5057986;28;20639;-54
2022/09/18 10:16:00;;;;;;;8.25;1.38;;;12.20;99.90;;;;;;5051656;28;20048;-51
2022/09/18 10:18:29;;;;;;;5.28;1.35;;;12.20;99.90;;;;;;5067235;28;20447;-53
2022/09/18 10:20:57;;;;;;;5.50;1.55;;;12.30;99.90;;;;;;5051977;28;20045;-51
2022/09/18 10:23:26;;;;;;;7.07;1.73;;;12.20;99.90;;;;;;5051906;28;20475;-51
2022/09/18 10:25:54;;;;;;;7.00;1.30;;;12.30;99.90;;;;;;5050470;28;20541;-56
2022/09/18 10:28:24;;;;;;;10.40;1.45;;;12.30;99.90;;;;;;5071220;28;20127;-55
2022/09/18 10:30:58;;;;;;;7.30;1.00;;;12.30;99.90;;;;;;5045191;28;20076;-52
2022/09/18 10:33:33;;;;;;;5.80;1.02;;;12.30;99.90;;;;;;5060958;28;20118;-51
2022/09/18 10:36:02;;;;;;;6.90;1.10;;;12.30;99.90;;;;;;5064084;28;20044;-55
2022/09/18 10:38:32;;;;;;;8.45;1.00;;;12.40;99.90;;;;;;5062058;28;20603;-56
2022/09/18 10:41:34;;;;;;;5.55;1.10;;;12.40;99.90;;;;;;5055089;28;20048;-53
2022/09/18 10:44:03;;;;;;;;;;;12.40;99.90;;;;;;5041795;28;20126;-51
2022/09/18 10:46:32;;;;;;;5.53;0.88;;;12.40;99.90;;;;;;5057797;28;19921;-45
2022/09/18 10:49:03;;;;;;;9.68;1.50;;;12.40;99.90;;;;;;5047260;28;20095;-55
2022/09/18 10:51:29;;;;;;;8.18;2.28;;;12.40;99.90;;;;;;5071074;28;20060;-51
2022/09/18 10:54:04;;;;;;;8.90;1.80;;;12.40;99.90;;;;;;5044449;28;20083;-47
2022/09/18 10:56:32;;;;;;;4.82;1.42;;;12.50;99.90;;;;;;5052462;28;20056;-46
2022/09/18 10:59:48;;;;;;;11.98;1.80;;;12.40;99.90;;;;;;5071841;28;20048;-49
2022/09/18 11:02:18;;;;;;;8.68;1.30;;;12.50;99.90;;;;;;5056898;28;20080;-48
2022/09/18 11:04:46;;;;;;;4.22;1.23;;;12.40;99.90;;;;;;5052236;28;20099;-48
2022/09/18 11:07:13;;;;;;;7.85;1.20;;;12.40;99.90;;;;;;5069755;28;20044;-48
2022/09/18 11:09:40;;;;;;;9.80;1.27;;;12.40;99.90;;;;;;5050382;28;20110;-49
2022/09/18 11:12:14;;;;;;;7.28;1.27;;;12.40;99.90;;;;;;5052469;28;20075;-45
2022/09/18 11:14:42;;;;;;;8.25;1.67;;;12.50;99.90;;;;;;5052286;28;20094;-47
2022/09/18 11:17:20;;;;;;;8.95;1.63;;;12.50;99.90;;;;;;5071736;28;20110;-50
2022/09/18 11:19:49;;;;;;;6.50;1.13;;;12.50;99.90;;;;;;5073560;28;20044;-47
2022/09/18 11:22:33;;;;;;;10.25;1.52;;;12.50;99.90;;;;;;5070791;28;20044;-47
2022/09/18 11:25:08;;;;;;;7.65;1.30;;;12.50;99.90;;;;;;5068983;28;21288;-50
2022/09/18 11:27:44;;;;;;;8.35;1.30;;;12.50;99.90;;;;;;5043418;28;20053;-49
2022/09/18 11:30:16;;;;;;;8.25;1.80;;;12.60;99.90;;;;;;5054214;28;20480;-45
2022/09/18 11:32:45;;;;;;;;;;;12.50;99.90;;;;;;5045904;28;20133;-51
2022/09/18 11:35:14;;;;;;;19.02;6.60;;;12.50;99.90;;;;;;5063071;28;19924;-47
2022/09/18 11:37:44;;;;;;;9.88;2.90;;;12.60;99.90;;;;;;5053305;28;20063;-49
2022/09/18 11:40:17;;;;;;;20.77;8.82;;;12.60;99.90;;;;;;5072796;28;20123;-46
2022/09/18 11:42:45;;;;;;;15.40;4.85;;;12.60;99.90;;;;;;5068906;28;20094;-46
2022/09/18 11:45:20;;;;;;;7.70;1.98;;;12.60;99.90;;;;;;5061896;28;20132;-45
2022/09/18 11:47:51;;;;;;;10.77;1.67;;;12.70;99.90;;;;;;5052373;28;20480;-52
2022/09/18 11:50:19;;;;;;;9.07;1.70;;;12.70;99.90;;;;;;5072707;28;20044;-49
2022/09/18 11:52:47;;;;;;;9.65;1.85;;;12.80;99.90;;;;;;5071240;28;20051;-46
2022/09/18 11:55:20;;;;;;;16.65;2.45;;;12.80;99.90;;;;;;5071366;28;20041;-46
2022/09/18 11:57:48;;;;;;;10.00;1.40;;;12.80;99.90;;;;;;5045614;28;20059;-50
2022/09/18 12:00:18;;;;;;;9.10;1.63;;;12.90;99.90;;;;;;5047139;28;20044;-49
2022/09/18 12:02:50;;;;;;;9.38;1.60;;;12.90;99.90;;;;;;5054901;28;20052;-51
2022/09/18 12:05:20;;;;;;;7.65;1.08;;;13.00;99.90;;;;;;5073318;28;20049;-46
2022/09/18 12:07:55;;;;;;;11.60;2.50;;;13.10;99.90;;;;;;5055858;28;20139;-50
2022/09/18 12:10:27;;;;;;;8.85;1.42;;;13.20;99.90;;;;;;5070840;28;20076;-43
2022/09/18 12:13:00;;;;;;;10.35;1.58;;;13.20;99.90;;;;;;5070367;28;20098;-50
2022/09/18 12:15:28;;;;;;;9.40;1.85;;;13.30;99.90;;;;;;5065397;28;20045;-46
2022/09/18 12:17:57;;;;;;;10.07;1.50;;;13.40;99.90;;;;;;5071335;28;20559;-48
2022/09/18 12:20:25;;;;;;;8.20;1.75;;;13.50;99.90;;;;;;5068724;28;20072;-47
2022/09/18 12:22:54;;;;;;;8.57;1.58;;;13.50;99.90;;;;;;5070812;28;20127;-51
2022/09/18 12:25:22;;;;;;;8.70;1.60;;;13.60;99.90;;;;;;5049328;28;20053;-48
2022/09/18 12:27:54;;;;;;;14.05;2.33;;;13.70;99.90;;;;;;5072999;28;20056;-47
2022/09/18 12:30:21;;;;;;;12.73;1.75;;;13.70;99.90;;;;;;5072754;28;20044;-45
2022/09/18 12:33:05;;;;;;;9.43;1.58;;;13.80;99.90;;;;;;5072124;28;20134;-50
2022/09/18 12:35:40;;;;;;;9.45;1.80;;;13.80;99.90;;;;;;5070708;28;20092;-45
2022/09/18 12:38:13;;;;;;;14.75;2.30;;;13.80;99.90;;;;;;5041849;28;20044;-48
2022/09/18 12:41:05;;;;;;;10.57;1.67;;;13.80;99.90;;;;;;5046604;28;20048;-49
2022/09/18 12:43:47;;;;;;;12.85;2.75;;;13.90;99.90;;;;;;5052661;28;20049;-43
2022/09/18 12:46:32;;;;;;;11.02;2.30;;;13.90;99.90;;;;;;5069301;28;20550;-49
2022/09/18 12:49:20;;;;;;;15.68;4.47;;;13.90;99.90;;;;;;5055014;28;20484;-46
2022/09/18 12:51:48;;;;;;;16.48;5.18;;;13.90;99.90;;;;;;5051581;28;20099;-44
2022/09/18 12:54:27;;;;;;;15.75;5.53;;;13.80;99.90;;;;;;5043582;28;20158;-44